sensor_id;sensor_type;location;lat;lon;timestamp;temperature;humidity
25732;DHT22;13585;50.864;4.406;2023-04-28T00:02:11;19.30;61.50
25732;DHT22;13585;50.864;4.406;2023-04-28T00:04:37;19.30;61.50
25732;DHT22;13585;50.864;4.406;2023-04-28T00:07:02;19.30;61.50
25732;DHT22;13585;50.864;4.406;2023-04-28T00:09:28;19.30;61.50
25732;DHT22;13585;50.864;4.406;2023-04-28T00:11:54;19.30;61.50
25732;DHT22;13585;50.864;4.406;2023-04-28T00:14:19;19.30;61.50
25732;DHT22;13585;50.864;4.406;2023-04-28T00:16:45;19.30;61.50
25732;DHT22;13585;50.864;4.406;2023-04-28T00:19:10;19.30;61.50
25732;DHT22;13585;50.864;4.406;2023-04-28T00:21:36;19.30;61.50
25732;DHT22;13585;50.864;4.406;2023-04-28T00:24:02;19.30;61.50
25732;DHT22;13585;50.864;4.406;2023-04-28T00:26:27;19.30;61.50
25732;DHT22;13585;50.864;4.406;2023-04-28T00:28:53;19.30;61.60
25732;DHT22;13585;50.864;4.406;2023-04-28T00:31:19;19.30;61.50
25732;DHT22;13585;50.864;4.406;2023-04-28T00:33:44;19.30;61.50
25732;DHT22;13585;50.864;4.406;2023-04-28T00:36:10;19.30;61.50
25732;DHT22;13585;50.864;4.406;2023-04-28T00:38:36;19.30;61.50
25732;DHT22;13585;50.864;4.406;2023-04-28T00:41:02;19.30;61.50
25732;DHT22;13585;50.864;4.406;2023-04-28T00:43:28;19.30;61.50
25732;DHT22;13585;50.864;4.406;2023-04-28T00:45:53;19.30;61.50
25732;DHT22;13585;50.864;4.406;2023-04-28T00:48:19;19.30;61.50
25732;DHT22;13585;50.864;4.406;2023-04-28T00:50:46;19.30;61.50
25732;DHT22;13585;50.864;4.406;2023-04-28T00:53:12;19.30;61.50
25732;DHT22;13585;50.864;4.406;2023-04-28T00:55:38;19.30;61.50
25732;DHT22;13585;50.864;4.406;2023-04-28T00:58:05;19.30;61.50
25732;DHT22;13585;50.864;4.406;2023-04-28T01:05:49;19.30;61.50
25732;DHT22;13585;50.864;4.406;2023-04-28T01:08:14;19.20;61.50
25732;DHT22;13585;50.864;4.406;2023-04-28T01:10:43;19.30;61.50
25732;DHT22;13585;50.864;4.406;2023-04-28T01:13:09;19.30;61.60
25732;DHT22;13585;50.864;4.406;2023-04-28T01:15:35;19.30;61.50
25732;DHT22;13585;50.864;4.406;2023-04-28T01:18:00;19.30;61.50
25732;DHT22;13585;50.864;4.406;2023-04-28T01:20:26;19.30;61.50
25732;DHT22;13585;50.864;4.406;2023-04-28T01:22:51;19.30;61.50
25732;DHT22;13585;50.864;4.406;2023-04-28T01:25:17;19.20;61.40
25732;DHT22;13585;50.864;4.406;2023-04-28T01:27:43;19.20;61.40
25732;DHT22;13585;50.864;4.406;2023-04-28T01:30:10;19.30;61.50
25732;DHT22;13585;50.864;4.406;2023-04-28T01:32:36;19.20;61.50
25732;DHT22;13585;50.864;4.406;2023-04-28T01:35:01;19.30;61.50
25732;DHT22;13585;50.864;4.406;2023-04-28T01:37:27;19.30;61.60
25732;DHT22;13585;50.864;4.406;2023-04-28T01:39:53;19.30;61.60
25732;DHT22;13585;50.864;4.406;2023-04-28T01:42:19;19.20;61.60
25732;DHT22;13585;50.864;4.406;2023-04-28T01:44:44;19.20;61.50
25732;DHT22;13585;50.864;4.406;2023-04-28T01:47:10;19.20;61.60
25732;DHT22;13585;50.864;4.406;2023-04-28T01:49:35;19.30;61.60
25732;DHT22;13585;50.864;4.406;2023-04-28T01:52:01;19.20;61.50
25732;DHT22;13585;50.864;4.406;2023-04-28T01:54:29;19.20;61.50
25732;DHT22;13585;50.864;4.406;2023-04-28T01:56:54;19.20;61.50
25732;DHT22;13585;50.864;4.406;2023-04-28T01:59:20;19.20;61.60
25732;DHT22;13585;50.864;4.406;2023-04-28T02:01:46;19.20;61.60
25732;DHT22;13585;50.864;4.406;2023-04-28T02:04:11;19.20;61.60
25732;DHT22;13585;50.864;4.406;2023-04-28T02:06:45;19.20;61.60
25732;DHT22;13585;50.864;4.406;2023-04-28T02:09:11;19.20;61.70
25732;DHT22;13585;50.864;4.406;2023-04-28T02:11:36;19.20;61.50
25732;DHT22;13585;50.864;4.406;2023-04-28T02:14:02;19.20;61.60
25732;DHT22;13585;50.864;4.406;2023-04-28T02:16:27;19.20;61.60
25732;DHT22;13585;50.864;4.406;2023-04-28T02:18:53;19.20;61.60
25732;DHT22;13585;50.864;4.406;2023-04-28T02:21:19;19.20;61.60
25732;DHT22;13585;50.864;4.406;2023-04-28T02:23:44;19.20;61.60
25732;DHT22;13585;50.864;4.406;2023-04-28T02:26:10;19.20;61.60
25732;DHT22;13585;50.864;4.406;2023-04-28T02:28:35;19.20;61.60
25732;DHT22;13585;50.864;4.406;2023-04-28T02:31:08;19.20;61.60
25732;DHT22;13585;50.864;4.406;2023-04-28T02:33:35;19.20;61.60
25732;DHT22;13585;50.864;4.406;2023-04-28T02:36:01;19.20;61.60
25732;DHT22;13585;50.864;4.406;2023-04-28T02:38:30;19.20;61.60
25732;DHT22;13585;50.864;4.406;2023-04-28T02:41:00;19.20;61.60
25732;DHT22;13585;50.864;4.406;2023-04-28T02:43:27;19.20;61.60
25732;DHT22;13585;50.864;4.406;2023-04-28T02:45:53;19.20;61.60
25732;DHT22;13585;50.864;4.406;2023-04-28T02:48:18;19.20;61.60
25732;DHT22;13585;50.864;4.406;2023-04-28T02:50:44;19.20;61.60
25732;DHT22;13585;50.864;4.406;2023-04-28T02:53:11;19.20;61.60
25732;DHT22;13585;50.864;4.406;2023-04-28T02:55:36;19.20;61.60
25732;DHT22;13585;50.864;4.406;2023-04-28T02:58:02;19.20;61.60
25732;DHT22;13585;50.864;4.406;2023-04-28T03:00:28;19.20;61.60
25732;DHT22;13585;50.864;4.406;2023-04-28T03:02:53;19.20;61.60
25732;DHT22;13585;50.864;4.406;2023-04-28T03:05:19;19.20;61.60
25732;DHT22;13585;50.864;4.406;2023-04-28T03:07:45;19.20;61.50
25732;DHT22;13585;50.864;4.406;2023-04-28T03:10:11;19.20;61.60
25732;DHT22;13585;50.864;4.406;2023-04-28T03:12:36;19.20;61.60
25732;DHT22;13585;50.864;4.406;2023-04-28T03:15:02;19.20;61.60
25732;DHT22;13585;50.864;4.406;2023-04-28T03:17:28;19.20;61.60
25732;DHT22;13585;50.864;4.406;2023-04-28T03:19:54;19.20;61.60
25732;DHT22;13585;50.864;4.406;2023-04-28T03:22:19;19.20;61.60
25732;DHT22;13585;50.864;4.406;2023-04-28T03:24:45;19.20;61.60
25732;DHT22;13585;50.864;4.406;2023-04-28T03:27:11;19.20;61.80
25732;DHT22;13585;50.864;4.406;2023-04-28T03:29:36;19.20;61.50
25732;DHT22;13585;50.864;4.406;2023-04-28T03:32:02;19.20;61.60
25732;DHT22;13585;50.864;4.406;2023-04-28T03:34:28;19.20;61.60
25732;DHT22;13585;50.864;4.406;2023-04-28T03:36:53;19.20;61.60
25732;DHT22;13585;50.864;4.406;2023-04-28T03:39:19;19.20;61.60
25732;DHT22;13585;50.864;4.406;2023-04-28T03:41:45;19.20;61.60
25732;DHT22;13585;50.864;4.406;2023-04-28T03:44:10;19.10;61.50
25732;DHT22;13585;50.864;4.406;2023-04-28T03:46:36;19.20;61.50
25732;DHT22;13585;50.864;4.406;2023-04-28T03:49:02;19.20;61.50
25732;DHT22;13585;50.864;4.406;2023-04-28T03:51:28;19.20;61.60
25732;DHT22;13585;50.864;4.406;2023-04-28T03:53:54;19.20;61.60
25732;DHT22;13585;50.864;4.406;2023-04-28T03:56:20;19.10;61.50
25732;DHT22;13585;50.864;4.406;2023-04-28T03:58:46;19.20;61.60
25732;DHT22;13585;50.864;4.406;2023-04-28T04:01:11;19.20;61.60
25732;DHT22;13585;50.864;4.406;2023-04-28T04:03:37;19.20;61.50
25732;DHT22;13585;50.864;4.406;2023-04-28T04:06:03;19.20;61.60
25732;DHT22;13585;50.864;4.406;2023-04-28T04:08:28;19.20;61.60
25732;DHT22;13585;50.864;4.406;2023-04-28T04:10:54;19.20;61.60
25732;DHT22;13585;50.864;4.406;2023-04-28T04:13:23;19.20;61.60
25732;DHT22;13585;50.864;4.406;2023-04-28T04:15:49;19.20;61.50
25732;DHT22;13585;50.864;4.406;2023-04-28T04:18:15;19.20;61.50
25732;DHT22;13585;50.864;4.406;2023-04-28T04:20:40;19.10;61.50
25732;DHT22;13585;50.864;4.406;2023-04-28T04:23:06;19.20;61.60
25732;DHT22;13585;50.864;4.406;2023-04-28T04:25:32;19.20;61.60
25732;DHT22;13585;50.864;4.406;2023-04-28T04:27:58;19.20;61.60
25732;DHT22;13585;50.864;4.406;2023-04-28T04:30:24;19.20;61.50
25732;DHT22;13585;50.864;4.406;2023-04-28T04:32:49;19.20;61.60
25732;DHT22;13585;50.864;4.406;2023-04-28T04:35:15;19.20;61.50
25732;DHT22;13585;50.864;4.406;2023-04-28T04:37:41;19.20;61.60
25732;DHT22;13585;50.864;4.406;2023-04-28T04:40:08;19.20;61.60
25732;DHT22;13585;50.864;4.406;2023-04-28T04:42:34;19.20;61.50
25732;DHT22;13585;50.864;4.406;2023-04-28T04:44:59;19.20;61.50
25732;DHT22;13585;50.864;4.406;2023-04-28T04:47:25;19.20;61.50
25732;DHT22;13585;50.864;4.406;2023-04-28T04:49:51;19.20;61.60
25732;DHT22;13585;50.864;4.406;2023-04-28T04:52:17;19.20;61.50
25732;DHT22;13585;50.864;4.406;2023-04-28T04:54:43;19.20;61.50
25732;DHT22;13585;50.864;4.406;2023-04-28T04:57:10;19.20;61.50
25732;DHT22;13585;50.864;4.406;2023-04-28T04:59:36;19.20;61.60
25732;DHT22;13585;50.864;4.406;2023-04-28T05:02:12;19.20;61.50
25732;DHT22;13585;50.864;4.406;2023-04-28T05:04:39;19.10;61.50
25732;DHT22;13585;50.864;4.406;2023-04-28T05:07:05;19.20;61.60
25732;DHT22;13585;50.864;4.406;2023-04-28T05:09:31;19.20;61.50
25732;DHT22;13585;50.864;4.406;2023-04-28T05:11:57;19.20;61.50
25732;DHT22;13585;50.864;4.406;2023-04-28T05:14:23;19.20;61.50
25732;DHT22;13585;50.864;4.406;2023-04-28T05:16:48;19.20;61.50
25732;DHT22;13585;50.864;4.406;2023-04-28T05:19:14;19.10;61.50
25732;DHT22;13585;50.864;4.406;2023-04-28T05:21:40;19.20;61.50
25732;DHT22;13585;50.864;4.406;2023-04-28T05:24:06;19.10;61.40
25732;DHT22;13585;50.864;4.406;2023-04-28T05:26:31;19.10;61.40
25732;DHT22;13585;50.864;4.406;2023-04-28T05:28:57;19.20;61.50
25732;DHT22;13585;50.864;4.406;2023-04-28T05:31:23;19.20;61.50
25732;DHT22;13585;50.864;4.406;2023-04-28T05:33:48;19.20;61.50
25732;DHT22;13585;50.864;4.406;2023-04-28T05:36:14;19.10;61.40
25732;DHT22;13585;50.864;4.406;2023-04-28T05:38:42;19.10;61.40
25732;DHT22;13585;50.864;4.406;2023-04-28T05:41:07;19.20;61.50
25732;DHT22;13585;50.864;4.406;2023-04-28T05:43:33;19.20;61.50
25732;DHT22;13585;50.864;4.406;2023-04-28T05:45:59;19.20;61.50
25732;DHT22;13585;50.864;4.406;2023-04-28T05:48:25;19.20;61.50
25732;DHT22;13585;50.864;4.406;2023-04-28T05:50:51;19.20;62.30
25732;DHT22;13585;50.864;4.406;2023-04-28T05:53:17;19.20;61.50
25732;DHT22;13585;50.864;4.406;2023-04-28T05:55:42;19.20;61.50
25732;DHT22;13585;50.864;4.406;2023-04-28T05:58:08;19.20;61.50
25732;DHT22;13585;50.864;4.406;2023-04-28T06:00:34;19.20;61.50
25732;DHT22;13585;50.864;4.406;2023-04-28T06:03:00;19.20;61.60
25732;DHT22;13585;50.864;4.406;2023-04-28T06:05:26;19.20;61.60
25732;DHT22;13585;50.864;4.406;2023-04-28T06:07:52;19.10;61.50
25732;DHT22;13585;50.864;4.406;2023-04-28T06:10:21;19.10;61.60
25732;DHT22;13585;50.864;4.406;2023-04-28T06:12:47;19.10;61.50
25732;DHT22;13585;50.864;4.406;2023-04-28T06:15:12;19.20;61.60
25732;DHT22;13585;50.864;4.406;2023-04-28T06:17:38;19.20;61.60
25732;DHT22;13585;50.864;4.406;2023-04-28T06:20:05;19.10;61.60
25732;DHT22;13585;50.864;4.406;2023-04-28T06:22:31;19.20;61.70
25732;DHT22;13585;50.864;4.406;2023-04-28T06:24:56;19.10;61.60
25732;DHT22;13585;50.864;4.406;2023-04-28T06:27:22;19.20;61.70
25732;DHT22;13585;50.864;4.406;2023-04-28T06:29:47;19.10;61.60
25732;DHT22;13585;50.864;4.406;2023-04-28T06:32:13;19.10;61.60
25732;DHT22;13585;50.864;4.406;2023-04-28T06:34:38;19.10;61.60
25732;DHT22;13585;50.864;4.406;2023-04-28T06:37:04;19.20;62.40
25732;DHT22;13585;50.864;4.406;2023-04-28T06:39:30;19.20;61.60
25732;DHT22;13585;50.864;4.406;2023-04-28T06:41:55;19.20;61.70
25732;DHT22;13585;50.864;4.406;2023-04-28T06:44:22;19.20;61.60
25732;DHT22;13585;50.864;4.406;2023-04-28T06:46:47;19.20;61.60
25732;DHT22;13585;50.864;4.406;2023-04-28T06:49:13;19.10;61.60
25732;DHT22;13585;50.864;4.406;2023-04-28T06:51:38;19.20;61.70
25732;DHT22;13585;50.864;4.406;2023-04-28T06:54:04;19.10;61.60
25732;DHT22;13585;50.864;4.406;2023-04-28T06:56:30;19.20;61.70
25732;DHT22;13585;50.864;4.406;2023-04-28T06:58:55;19.10;61.60
25732;DHT22;13585;50.864;4.406;2023-04-28T07:01:21;19.10;61.60
25732;DHT22;13585;50.864;4.406;2023-04-28T07:03:47;19.20;61.70
25732;DHT22;13585;50.864;4.406;2023-04-28T07:06:13;19.20;61.60
25732;DHT22;13585;50.864;4.406;2023-04-28T07:08:40;19.10;61.60
25732;DHT22;13585;50.864;4.406;2023-04-28T07:11:06;19.20;61.80
25732;DHT22;13585;50.864;4.406;2023-04-28T07:13:32;19.10;61.60
25732;DHT22;13585;50.864;4.406;2023-04-28T07:15:58;19.20;61.70
25732;DHT22;13585;50.864;4.406;2023-04-28T07:18:24;19.20;61.70
25732;DHT22;13585;50.864;4.406;2023-04-28T07:20:50;19.10;61.60
25732;DHT22;13585;50.864;4.406;2023-04-28T07:23:15;19.20;61.70
25732;DHT22;13585;50.864;4.406;2023-04-28T07:25:41;19.20;61.80
25732;DHT22;13585;50.864;4.406;2023-04-28T07:28:07;19.20;61.70
25732;DHT22;13585;50.864;4.406;2023-04-28T07:30:35;19.20;61.70
25732;DHT22;13585;50.864;4.406;2023-04-28T07:33:01;19.10;61.70
25732;DHT22;13585;50.864;4.406;2023-04-28T07:35:27;19.20;61.70
25732;DHT22;13585;50.864;4.406;2023-04-28T07:37:53;19.10;61.70
25732;DHT22;13585;50.864;4.406;2023-04-28T07:40:19;19.10;61.70
25732;DHT22;13585;50.864;4.406;2023-04-28T07:42:45;19.20;61.80
25732;DHT22;13585;50.864;4.406;2023-04-28T07:45:13;19.20;61.80
25732;DHT22;13585;50.864;4.406;2023-04-28T07:47:39;19.20;61.80
25732;DHT22;13585;50.864;4.406;2023-04-28T07:50:06;19.20;61.70
25732;DHT22;13585;50.864;4.406;2023-04-28T07:52:33;19.20;62.50
25732;DHT22;13585;50.864;4.406;2023-04-28T07:55:01;19.20;61.70
25732;DHT22;13585;50.864;4.406;2023-04-28T07:57:27;19.20;61.80
25732;DHT22;13585;50.864;4.406;2023-04-28T07:59:53;19.20;61.80
25732;DHT22;13585;50.864;4.406;2023-04-28T08:02:19;19.20;61.80
25732;DHT22;13585;50.864;4.406;2023-04-28T08:04:45;19.20;62.00
25732;DHT22;13585;50.864;4.406;2023-04-28T08:07:11;19.20;62.00
25732;DHT22;13585;50.864;4.406;2023-04-28T08:09:37;19.30;62.10
25732;DHT22;13585;50.864;4.406;2023-04-28T08:12:04;19.20;62.10
25732;DHT22;13585;50.864;4.406;2023-04-28T08:14:30;19.30;62.30
25732;DHT22;13585;50.864;4.406;2023-04-28T08:16:56;19.20;62.30
25732;DHT22;13585;50.864;4.406;2023-04-28T08:19:21;19.20;62.40
25732;DHT22;13585;50.864;4.406;2023-04-28T08:21:47;19.20;62.40
25732;DHT22;13585;50.864;4.406;2023-04-28T08:24:13;19.20;62.50
25732;DHT22;13585;50.864;4.406;2023-04-28T08:26:39;19.20;62.60
25732;DHT22;13585;50.864;4.406;2023-04-28T08:29:04;19.20;62.60
25732;DHT22;13585;50.864;4.406;2023-04-28T08:31:30;19.20;62.70
25732;DHT22;13585;50.864;4.406;2023-04-28T08:33:56;19.20;63.50
25732;DHT22;13585;50.864;4.406;2023-04-28T08:36:22;19.20;62.80
25732;DHT22;13585;50.864;4.406;2023-04-28T08:38:56;19.20;62.90
25732;DHT22;13585;50.864;4.406;2023-04-28T08:41:23;19.20;63.00
25732;DHT22;13585;50.864;4.406;2023-04-28T08:43:50;19.20;63.00
25732;DHT22;13585;50.864;4.406;2023-04-28T08:46:17;19.20;63.00
25732;DHT22;13585;50.864;4.406;2023-04-28T08:48:45;19.20;63.00
25732;DHT22;13585;50.864;4.406;2023-04-28T08:51:15;19.20;63.10
25732;DHT22;13585;50.864;4.406;2023-04-28T08:53:44;19.20;63.10
25732;DHT22;13585;50.864;4.406;2023-04-28T08:56:15;19.20;63.10
25732;DHT22;13585;50.864;4.406;2023-04-28T08:58:42;19.20;63.10
25732;DHT22;13585;50.864;4.406;2023-04-28T09:01:08;19.20;63.10
25732;DHT22;13585;50.864;4.406;2023-04-28T09:03:34;19.20;63.10
25732;DHT22;13585;50.864;4.406;2023-04-28T09:06:00;19.20;63.10
25732;DHT22;13585;50.864;4.406;2023-04-28T09:08:27;19.20;63.10
25732;DHT22;13585;50.864;4.406;2023-04-28T09:11:09;19.20;63.20
25732;DHT22;13585;50.864;4.406;2023-04-28T09:13:36;19.20;63.20
25732;DHT22;13585;50.864;4.406;2023-04-28T09:16:02;19.20;63.10
25732;DHT22;13585;50.864;4.406;2023-04-28T09:18:29;19.20;63.20
25732;DHT22;13585;50.864;4.406;2023-04-28T09:21:07;19.20;63.10
25732;DHT22;13585;50.864;4.406;2023-04-28T09:23:33;19.20;63.20
25732;DHT22;13585;50.864;4.406;2023-04-28T09:26:04;19.20;63.10
25732;DHT22;13585;50.864;4.406;2023-04-28T09:28:31;19.20;63.40
25732;DHT22;13585;50.864;4.406;2023-04-28T09:30:58;19.30;63.50
25732;DHT22;13585;50.864;4.406;2023-04-28T09:33:23;19.30;63.50
25732;DHT22;13585;50.864;4.406;2023-04-28T09:35:49;19.30;63.60
25732;DHT22;13585;50.864;4.406;2023-04-28T09:38:15;19.30;63.70
25732;DHT22;13585;50.864;4.406;2023-04-28T09:41:01;19.30;63.80
25732;DHT22;13585;50.864;4.406;2023-04-28T09:43:27;19.30;64.00
25732;DHT22;13585;50.864;4.406;2023-04-28T09:45:55;19.30;64.00
25732;DHT22;13585;50.864;4.406;2023-04-28T09:48:32;19.30;64.20
25732;DHT22;13585;50.864;4.406;2023-04-28T09:50:59;19.30;64.40
25732;DHT22;13585;50.864;4.406;2023-04-28T09:53:26;19.30;64.40
25732;DHT22;13585;50.864;4.406;2023-04-28T09:55:53;19.30;64.60
25732;DHT22;13585;50.864;4.406;2023-04-28T09:58:23;19.30;64.70
25732;DHT22;13585;50.864;4.406;2023-04-28T10:00:54;19.30;64.80
25732;DHT22;13585;50.864;4.406;2023-04-28T10:03:22;19.30;64.80
25732;DHT22;13585;50.864;4.406;2023-04-28T10:05:49;19.40;64.90
25732;DHT22;13585;50.864;4.406;2023-04-28T10:08:16;19.40;65.00
25732;DHT22;13585;50.864;4.406;2023-04-28T10:10:45;19.40;65.10
25732;DHT22;13585;50.864;4.406;2023-04-28T10:13:11;19.40;65.30
25732;DHT22;13585;50.864;4.406;2023-04-28T10:15:37;19.40;65.40
25732;DHT22;13585;50.864;4.406;2023-04-28T10:18:04;19.40;65.60
25732;DHT22;13585;50.864;4.406;2023-04-28T10:20:30;19.40;65.70
25732;DHT22;13585;50.864;4.406;2023-04-28T10:25:41;19.40;66.10
25732;DHT22;13585;50.864;4.406;2023-04-28T10:28:08;19.40;66.10
25732;DHT22;13585;50.864;4.406;2023-04-28T10:30:34;19.40;66.20
25732;DHT22;13585;50.864;4.406;2023-04-28T10:35:43;19.40;66.50
25732;DHT22;13585;50.864;4.406;2023-04-28T10:38:14;19.40;66.50
25732;DHT22;13585;50.864;4.406;2023-04-28T10:40:44;19.40;66.60
25732;DHT22;13585;50.864;4.406;2023-04-28T10:43:31;19.40;66.70
25732;DHT22;13585;50.864;4.406;2023-04-28T10:56:13;19.40;67.00
25732;DHT22;13585;50.864;4.406;2023-04-28T10:58:41;19.40;67.00
25732;DHT22;13585;50.864;4.406;2023-04-28T11:09:02;19.40;67.40
25732;DHT22;13585;50.864;4.406;2023-04-28T11:11:32;19.50;67.20
25732;DHT22;13585;50.864;4.406;2023-04-28T11:16:51;19.40;67.40
25732;DHT22;13585;50.864;4.406;2023-04-28T11:19:22;19.40;67.30
25732;DHT22;13585;50.864;4.406;2023-04-28T11:21:49;19.50;67.40
25732;DHT22;13585;50.864;4.406;2023-04-28T11:24:15;19.50;67.50
25732;DHT22;13585;50.864;4.406;2023-04-28T11:26:41;19.40;67.40
25732;DHT22;13585;50.864;4.406;2023-04-28T11:29:09;19.40;67.60
25732;DHT22;13585;50.864;4.406;2023-04-28T11:31:35;19.40;67.70
25732;DHT22;13585;50.864;4.406;2023-04-28T11:34:07;19.50;67.80
25732;DHT22;13585;50.864;4.406;2023-04-28T11:36:40;19.50;67.80
25732;DHT22;13585;50.864;4.406;2023-04-28T11:39:07;19.50;68.60
25732;DHT22;13585;50.864;4.406;2023-04-28T11:41:38;19.50;67.90
25732;DHT22;13585;50.864;4.406;2023-04-28T11:44:16;19.50;68.00
25732;DHT22;13585;50.864;4.406;2023-04-28T11:47:13;19.40;68.00
25732;DHT22;13585;50.864;4.406;2023-04-28T11:49:45;19.50;68.10
25732;DHT22;13585;50.864;4.406;2023-04-28T11:52:11;19.50;68.10
25732;DHT22;13585;50.864;4.406;2023-04-28T11:54:38;19.50;68.20
25732;DHT22;13585;50.864;4.406;2023-04-28T11:57:06;19.50;68.20
25732;DHT22;13585;50.864;4.406;2023-04-28T11:59:41;19.50;68.30
25732;DHT22;13585;50.864;4.406;2023-04-28T12:02:06;19.50;68.30
25732;DHT22;13585;50.864;4.406;2023-04-28T12:04:42;19.50;68.30
25732;DHT22;13585;50.864;4.406;2023-04-28T12:07:15;19.50;68.30
25732;DHT22;13585;50.864;4.406;2023-04-28T12:09:44;19.50;68.50
25732;DHT22;13585;50.864;4.406;2023-04-28T12:12:12;19.50;68.40
25732;DHT22;13585;50.864;4.406;2023-04-28T12:15:00;19.50;68.50
25732;DHT22;13585;50.864;4.406;2023-04-28T12:17:30;19.40;68.50
25732;DHT22;13585;50.864;4.406;2023-04-28T12:19:59;19.50;68.50
25732;DHT22;13585;50.864;4.406;2023-04-28T12:22:25;19.50;68.50
25732;DHT22;13585;50.864;4.406;2023-04-28T12:25:10;19.50;68.60
25732;DHT22;13585;50.864;4.406;2023-04-28T12:27:38;19.50;68.70
25732;DHT22;13585;50.864;4.406;2023-04-28T12:30:28;19.50;68.60
25732;DHT22;13585;50.864;4.406;2023-04-28T12:32:54;19.40;68.70
25732;DHT22;13585;50.864;4.406;2023-04-28T12:35:21;19.50;68.60
25732;DHT22;13585;50.864;4.406;2023-04-28T12:37:47;19.40;68.70
25732;DHT22;13585;50.864;4.406;2023-04-28T12:40:13;19.50;68.80
25732;DHT22;13585;50.864;4.406;2023-04-28T12:42:39;19.40;68.70
25732;DHT22;13585;50.864;4.406;2023-04-28T12:45:06;19.50;68.80
25732;DHT22;13585;50.864;4.406;2023-04-28T12:47:33;19.50;68.80
25732;DHT22;13585;50.864;4.406;2023-04-28T12:49:59;19.50;68.80
25732;DHT22;13585;50.864;4.406;2023-04-28T12:52:27;19.50;68.90
25732;DHT22;13585;50.864;4.406;2023-04-28T12:54:53;19.50;68.80
25732;DHT22;13585;50.864;4.406;2023-04-28T12:57:19;19.50;68.90
25732;DHT22;13585;50.864;4.406;2023-04-28T12:59:45;19.50;68.90
25732;DHT22;13585;50.864;4.406;2023-04-28T13:02:12;19.50;68.90
25732;DHT22;13585;50.864;4.406;2023-04-28T13:04:39;19.50;68.90
25732;DHT22;13585;50.864;4.406;2023-04-28T13:07:07;19.50;68.90
25732;DHT22;13585;50.864;4.406;2023-04-28T13:09:33;19.50;68.90
25732;DHT22;13585;50.864;4.406;2023-04-28T13:11:59;19.50;68.90
25732;DHT22;13585;50.864;4.406;2023-04-28T13:14:25;19.50;68.90
25732;DHT22;13585;50.864;4.406;2023-04-28T13:16:51;19.50;68.90
25732;DHT22;13585;50.864;4.406;2023-04-28T13:19:17;19.50;69.00
25732;DHT22;13585;50.864;4.406;2023-04-28T13:21:43;19.50;69.00
25732;DHT22;13585;50.864;4.406;2023-04-28T13:24:09;19.50;69.00
25732;DHT22;13585;50.864;4.406;2023-04-28T13:26:36;19.50;69.00
25732;DHT22;13585;50.864;4.406;2023-04-28T13:29:02;19.50;69.00
25732;DHT22;13585;50.864;4.406;2023-04-28T13:31:29;19.50;69.00
25732;DHT22;13585;50.864;4.406;2023-04-28T13:33:56;19.50;69.00
25732;DHT22;13585;50.864;4.406;2023-04-28T13:36:21;19.50;69.00
25732;DHT22;13585;50.864;4.406;2023-04-28T13:38:47;19.50;69.00
25732;DHT22;13585;50.864;4.406;2023-04-28T13:41:16;19.50;69.00
25732;DHT22;13585;50.864;4.406;2023-04-28T13:43:43;19.50;69.00
25732;DHT22;13585;50.864;4.406;2023-04-28T13:46:09;19.50;69.00
25732;DHT22;13585;50.864;4.406;2023-04-28T13:48:35;19.50;69.00
25732;DHT22;13585;50.864;4.406;2023-04-28T13:51:01;19.50;69.00
25732;DHT22;13585;50.864;4.406;2023-04-28T13:53:28;19.50;69.00
25732;DHT22;13585;50.864;4.406;2023-04-28T13:55:55;19.50;69.00
25732;DHT22;13585;50.864;4.406;2023-04-28T13:58:25;19.50;69.10
25732;DHT22;13585;50.864;4.406;2023-04-28T14:00:55;19.50;69.10
25732;DHT22;13585;50.864;4.406;2023-04-28T14:03:22;19.50;69.10
25732;DHT22;13585;50.864;4.406;2023-04-28T14:05:48;19.50;69.10
25732;DHT22;13585;50.864;4.406;2023-04-28T14:08:16;19.50;69.10
25732;DHT22;13585;50.864;4.406;2023-04-28T14:10:41;19.50;69.20
25732;DHT22;13585;50.864;4.406;2023-04-28T14:13:07;19.50;69.10
25732;DHT22;13585;50.864;4.406;2023-04-28T14:15:33;19.50;69.10
25732;DHT22;13585;50.864;4.406;2023-04-28T14:17:58;19.50;69.10
25732;DHT22;13585;50.864;4.406;2023-04-28T14:20:24;19.50;69.20
25732;DHT22;13585;50.864;4.406;2023-04-28T14:22:50;19.50;69.20
25732;DHT22;13585;50.864;4.406;2023-04-28T14:25:16;19.60;69.30
25732;DHT22;13585;50.864;4.406;2023-04-28T14:27:43;19.50;69.30
25732;DHT22;13585;50.864;4.406;2023-04-28T14:30:09;19.50;69.30
25732;DHT22;13585;50.864;4.406;2023-04-28T14:32:35;19.50;69.30
25732;DHT22;13585;50.864;4.406;2023-04-28T14:35:03;19.50;69.40
25732;DHT22;13585;50.864;4.406;2023-04-28T14:37:30;19.60;69.40
25732;DHT22;13585;50.864;4.406;2023-04-28T14:39:56;19.60;69.40
25732;DHT22;13585;50.864;4.406;2023-04-28T14:42:27;19.60;69.40
25732;DHT22;13585;50.864;4.406;2023-04-28T14:44:53;19.50;69.40
25732;DHT22;13585;50.864;4.406;2023-04-28T14:47:19;19.60;69.40
25732;DHT22;13585;50.864;4.406;2023-04-28T14:49:46;19.60;69.60
25732;DHT22;13585;50.864;4.406;2023-04-28T14:52:12;19.60;69.60
25732;DHT22;13585;50.864;4.406;2023-04-28T14:54:39;19.60;69.60
25732;DHT22;13585;50.864;4.406;2023-04-28T14:57:04;19.60;69.60
25732;DHT22;13585;50.864;4.406;2023-04-28T14:59:31;19.60;70.40
25732;DHT22;13585;50.864;4.406;2023-04-28T15:01:56;19.60;69.70
25732;DHT22;13585;50.864;4.406;2023-04-28T15:04:22;19.60;69.70
25732;DHT22;13585;50.864;4.406;2023-04-28T15:06:54;19.60;69.80
25732;DHT22;13585;50.864;4.406;2023-04-28T15:09:20;19.60;69.70
25732;DHT22;13585;50.864;4.406;2023-04-28T15:11:46;19.60;69.70
25732;DHT22;13585;50.864;4.406;2023-04-28T15:14:12;19.60;69.80
25732;DHT22;13585;50.864;4.406;2023-04-28T15:16:38;19.60;69.80
25732;DHT22;13585;50.864;4.406;2023-04-28T15:19:04;19.60;69.80
25732;DHT22;13585;50.864;4.406;2023-04-28T15:21:33;19.60;69.80
25732;DHT22;13585;50.864;4.406;2023-04-28T15:23:59;19.60;69.80
25732;DHT22;13585;50.864;4.406;2023-04-28T15:26:25;19.60;69.80
25732;DHT22;13585;50.864;4.406;2023-04-28T15:28:52;19.60;69.80
25732;DHT22;13585;50.864;4.406;2023-04-28T15:31:18;19.60;69.80
25732;DHT22;13585;50.864;4.406;2023-04-28T15:33:44;19.60;69.80
25732;DHT22;13585;50.864;4.406;2023-04-28T15:36:11;19.60;69.80
25732;DHT22;13585;50.864;4.406;2023-04-28T15:38:38;19.60;69.80
25732;DHT22;13585;50.864;4.406;2023-04-28T15:41:04;19.60;69.80
25732;DHT22;13585;50.864;4.406;2023-04-28T15:43:29;19.60;69.80
25732;DHT22;13585;50.864;4.406;2023-04-28T15:45:55;19.60;69.80
25732;DHT22;13585;50.864;4.406;2023-04-28T15:48:21;19.60;69.80
25732;DHT22;13585;50.864;4.406;2023-04-28T15:50:47;19.60;69.80
25732;DHT22;13585;50.864;4.406;2023-04-28T15:53:13;19.60;69.80
25732;DHT22;13585;50.864;4.406;2023-04-28T15:55:39;19.60;69.80
25732;DHT22;13585;50.864;4.406;2023-04-28T15:58:04;19.60;69.80
25732;DHT22;13585;50.864;4.406;2023-04-28T16:00:30;19.60;70.50